sensor_id;sensor_type;location;lat;lon;timestamp;P1;durP1;ratioP1;P2;durP2;ratioP2
11123;SDS011;5616;42.692;23.312;2022-11-04T00:00:13;14.70;;;8.33;;
11123;SDS011;5616;42.692;23.312;2022-11-04T00:02:40;13.73;;;8.83;;
11123;SDS011;5616;42.692;23.312;2022-11-04T00:05:07;15.40;;;7.97;;
11123;SDS011;5616;42.692;23.312;2022-11-04T00:07:34;15.60;;;9.20;;
11123;SDS011;5616;42.692;23.312;2022-11-04T00:10:20;16.87;;;9.83;;
11123;SDS011;5616;42.692;23.312;2022-11-04T00:13:07;15.50;;;9.40;;
11123;SDS011;5616;42.692;23.312;2022-11-04T00:15:34;13.23;;;9.30;;
11123;SDS011;5616;42.692;23.312;2022-11-04T00:18:19;16.17;;;8.83;;
11123;SDS011;5616;42.692;23.312;2022-11-04T00:20:46;14.33;;;9.43;;
11123;SDS011;5616;42.692;23.312;2022-11-04T00:23:30;14.27;;;9.07;;
11123;SDS011;5616;42.692;23.312;2022-11-04T00:26:16;16.33;;;9.67;;
11123;SDS011;5616;42.692;23.312;2022-11-04T00:29:00;13.07;;;9.40;;
11123;SDS011;5616;42.692;23.312;2022-11-04T00:31:27;15.03;;;9.00;;
11123;SDS011;5616;42.692;23.312;2022-11-04T00:34:22;15.20;;;9.73;;
11123;SDS011;5616;42.692;23.312;2022-11-04T00:36:49;17.57;;;9.97;;
11123;SDS011;5616;42.692;23.312;2022-11-04T00:39:16;17.33;;;10.17;;
11123;SDS011;5616;42.692;23.312;2022-11-04T00:41:44;19.27;;;10.80;;
11123;SDS011;5616;42.692;23.312;2022-11-04T00:44:11;16.57;;;10.00;;
11123;SDS011;5616;42.692;23.312;2022-11-04T00:46:38;16.40;;;9.40;;
11123;SDS011;5616;42.692;23.312;2022-11-04T00:49:04;20.50;;;10.57;;
11123;SDS011;5616;42.692;23.312;2022-11-04T00:51:31;14.23;;;9.50;;
11123;SDS011;5616;42.692;23.312;2022-11-04T00:53:58;16.47;;;9.63;;
11123;SDS011;5616;42.692;23.312;2022-11-04T00:56:25;19.40;;;10.03;;
11123;SDS011;5616;42.692;23.312;2022-11-04T00:58:53;16.57;;;9.20;;
11123;SDS011;5616;42.692;23.312;2022-11-04T01:01:20;20.00;;;9.80;;
11123;SDS011;5616;42.692;23.312;2022-11-04T01:03:48;15.87;;;10.13;;
11123;SDS011;5616;42.692;23.312;2022-11-04T01:06:15;21.43;;;10.37;;
11123;SDS011;5616;42.692;23.312;2022-11-04T01:08:43;15.20;;;10.23;;
11123;SDS011;5616;42.692;23.312;2022-11-04T01:11:10;19.80;;;10.53;;
11123;SDS011;5616;42.692;23.312;2022-11-04T01:13:38;17.37;;;10.37;;
11123;SDS011;5616;42.692;23.312;2022-11-04T01:16:07;20.95;;;11.68;;
11123;SDS011;5616;42.692;23.312;2022-11-04T01:18:36;20.07;;;10.60;;
11123;SDS011;5616;42.692;23.312;2022-11-04T01:21:03;22.80;;;10.23;;
11123;SDS011;5616;42.692;23.312;2022-11-04T01:23:32;18.60;;;11.60;;
11123;SDS011;5616;42.692;23.312;2022-11-04T01:26:00;19.60;;;10.60;;
11123;SDS011;5616;42.692;23.312;2022-11-04T01:28:27;19.83;;;11.00;;
11123;SDS011;5616;42.692;23.312;2022-11-04T01:30:54;16.63;;;10.77;;
11123;SDS011;5616;42.692;23.312;2022-11-04T01:33:22;18.30;;;10.23;;
11123;SDS011;5616;42.692;23.312;2022-11-04T01:35:49;17.63;;;10.33;;
11123;SDS011;5616;42.692;23.312;2022-11-04T01:38:15;16.10;;;10.93;;
11123;SDS011;5616;42.692;23.312;2022-11-04T01:40:42;21.40;;;11.27;;
11123;SDS011;5616;42.692;23.312;2022-11-04T01:43:11;19.40;;;11.33;;
11123;SDS011;5616;42.692;23.312;2022-11-04T01:45:40;19.43;;;10.40;;
11123;SDS011;5616;42.692;23.312;2022-11-04T01:48:11;20.97;;;10.80;;
11123;SDS011;5616;42.692;23.312;2022-11-04T01:50:44;15.97;;;10.57;;
11123;SDS011;5616;42.692;23.312;2022-11-04T01:53:12;19.80;;;10.30;;
11123;SDS011;5616;42.692;23.312;2022-11-04T01:55:44;15.63;;;10.70;;
11123;SDS011;5616;42.692;23.312;2022-11-04T01:58:17;18.27;;;9.47;;
11123;SDS011;5616;42.692;23.312;2022-11-04T02:00:47;19.57;;;10.17;;
11123;SDS011;5616;42.692;23.312;2022-11-04T02:03:15;14.57;;;9.83;;
11123;SDS011;5616;42.692;23.312;2022-11-04T02:05:47;19.07;;;9.87;;
11123;SDS011;5616;42.692;23.312;2022-11-04T02:08:14;16.97;;;10.60;;
11123;SDS011;5616;42.692;23.312;2022-11-04T02:10:44;20.33;;;10.63;;
11123;SDS011;5616;42.692;23.312;2022-11-04T02:13:16;22.00;;;10.80;;
11123;SDS011;5616;42.692;23.312;2022-11-04T02:15:43;18.67;;;10.10;;
11123;SDS011;5616;42.692;23.312;2022-11-04T02:18:20;18.20;;;10.33;;
11123;SDS011;5616;42.692;23.312;2022-11-04T02:21:10;19.27;;;10.70;;
11123;SDS011;5616;42.692;23.312;2022-11-04T02:24:03;16.37;;;10.10;;
11123;SDS011;5616;42.692;23.312;2022-11-04T02:26:47;17.10;;;10.63;;
11123;SDS011;5616;42.692;23.312;2022-11-04T02:29:44;15.77;;;10.07;;
11123;SDS011;5616;42.692;23.312;2022-11-04T02:32:17;16.10;;;9.83;;
11123;SDS011;5616;42.692;23.312;2022-11-04T02:34:51;16.83;;;10.67;;
11123;SDS011;5616;42.692;23.312;2022-11-04T02:37:29;19.40;;;10.77;;
11123;SDS011;5616;42.692;23.312;2022-11-04T02:40:15;21.93;;;10.40;;
11123;SDS011;5616;42.692;23.312;2022-11-04T02:42:47;18.33;;;10.63;;
11123;SDS011;5616;42.692;23.312;2022-11-04T02:45:21;21.30;;;10.37;;
11123;SDS011;5616;42.692;23.312;2022-11-04T02:47:53;17.00;;;10.23;;
11123;SDS011;5616;42.692;23.312;2022-11-04T02:50:24;17.57;;;10.67;;
11123;SDS011;5616;42.692;23.312;2022-11-04T02:52:58;23.53;;;11.63;;
11123;SDS011;5616;42.692;23.312;2022-11-04T02:55:31;16.63;;;11.27;;
11123;SDS011;5616;42.692;23.312;2022-11-04T02:58:04;17.37;;;11.43;;
11123;SDS011;5616;42.692;23.312;2022-11-04T03:00:36;20.90;;;10.97;;
11123;SDS011;5616;42.692;23.312;2022-11-04T03:03:08;17.40;;;10.80;;
11123;SDS011;5616;42.692;23.312;2022-11-04T03:05:39;19.10;;;10.53;;
11123;SDS011;5616;42.692;23.312;2022-11-04T03:08:11;20.27;;;10.73;;
11123;SDS011;5616;42.692;23.312;2022-11-04T03:10:43;17.97;;;10.80;;
11123;SDS011;5616;42.692;23.312;2022-11-04T03:13:15;17.67;;;10.00;;
11123;SDS011;5616;42.692;23.312;2022-11-04T03:15:46;18.30;;;10.63;;
11123;SDS011;5616;42.692;23.312;2022-11-04T03:18:18;16.60;;;10.50;;
11123;SDS011;5616;42.692;23.312;2022-11-04T03:20:49;21.77;;;11.47;;
11123;SDS011;5616;42.692;23.312;2022-11-04T03:23:18;21.37;;;10.63;;
11123;SDS011;5616;42.692;23.312;2022-11-04T03:25:45;18.43;;;10.80;;
11123;SDS011;5616;42.692;23.312;2022-11-04T03:28:19;16.60;;;11.45;;
11123;SDS011;5616;42.692;23.312;2022-11-04T03:30:55;19.17;;;10.30;;
11123;SDS011;5616;42.692;23.312;2022-11-04T03:33:25;22.13;;;11.30;;
11123;SDS011;5616;42.692;23.312;2022-11-04T03:35:58;20.27;;;11.10;;
11123;SDS011;5616;42.692;23.312;2022-11-04T03:38:25;17.03;;;10.83;;
11123;SDS011;5616;42.692;23.312;2022-11-04T03:40:51;13.90;;;10.23;;
11123;SDS011;5616;42.692;23.312;2022-11-04T03:43:20;21.23;;;11.00;;
11123;SDS011;5616;42.692;23.312;2022-11-04T03:45:49;18.63;;;10.43;;
11123;SDS011;5616;42.692;23.312;2022-11-04T03:48:18;21.67;;;10.70;;
11123;SDS011;5616;42.692;23.312;2022-11-04T03:50:45;19.37;;;10.80;;
11123;SDS011;5616;42.692;23.312;2022-11-04T03:53:14;17.47;;;11.23;;
11123;SDS011;5616;42.692;23.312;2022-11-04T03:55:50;21.53;;;11.03;;
11123;SDS011;5616;42.692;23.312;2022-11-04T03:58:33;17.13;;;10.67;;
11123;SDS011;5616;42.692;23.312;2022-11-04T04:01:11;15.03;;;10.23;;
11123;SDS011;5616;42.692;23.312;2022-11-04T04:03:54;19.83;;;11.25;;
11123;SDS011;5616;42.692;23.312;2022-11-04T04:06:25;21.53;;;11.23;;
11123;SDS011;5616;42.692;23.312;2022-11-04T04:08:57;18.83;;;10.80;;
11123;SDS011;5616;42.692;23.312;2022-11-04T04:11:31;16.83;;;11.27;;
11123;SDS011;5616;42.692;23.312;2022-11-04T04:14:04;20.73;;;10.83;;
11123;SDS011;5616;42.692;23.312;2022-11-04T04:16:58;19.40;;;11.37;;
11123;SDS011;5616;42.692;23.312;2022-11-04T04:19:30;17.40;;;11.17;;
11123;SDS011;5616;42.692;23.312;2022-11-04T04:21:59;17.63;;;11.53;;
11123;SDS011;5616;42.692;23.312;2022-11-04T04:24:31;20.07;;;11.03;;
11123;SDS011;5616;42.692;23.312;2022-11-04T04:27:19;24.50;;;11.70;;
11123;SDS011;5616;42.692;23.312;2022-11-04T04:29:57;17.80;;;11.67;;
11123;SDS011;5616;42.692;23.312;2022-11-04T04:32:27;17.23;;;10.87;;
11123;SDS011;5616;42.692;23.312;2022-11-04T04:34:59;20.07;;;12.17;;
11123;SDS011;5616;42.692;23.312;2022-11-04T04:37:44;19.50;;;11.80;;
11123;SDS011;5616;42.692;23.312;2022-11-04T04:40:14;22.00;;;12.85;;
11123;SDS011;5616;42.692;23.312;2022-11-04T04:43:01;19.87;;;11.70;;
11123;SDS011;5616;42.692;23.312;2022-11-04T04:45:47;18.80;;;12.10;;
11123;SDS011;5616;42.692;23.312;2022-11-04T04:48:18;24.40;;;12.27;;
11123;SDS011;5616;42.692;23.312;2022-11-04T04:50:47;16.17;;;11.53;;
11123;SDS011;5616;42.692;23.312;2022-11-04T04:53:16;20.20;;;12.00;;
11123;SDS011;5616;42.692;23.312;2022-11-04T04:55:43;26.07;;;12.37;;
11123;SDS011;5616;42.692;23.312;2022-11-04T04:58:10;22.47;;;11.73;;
11123;SDS011;5616;42.692;23.312;2022-11-04T05:00:37;23.20;;;12.30;;
11123;SDS011;5616;42.692;23.312;2022-11-04T05:03:03;23.80;;;11.77;;
11123;SDS011;5616;42.692;23.312;2022-11-04T05:05:30;19.40;;;11.83;;
11123;SDS011;5616;42.692;23.312;2022-11-04T05:08:03;18.37;;;11.67;;
11123;SDS011;5616;42.692;23.312;2022-11-04T05:10:31;18.07;;;11.67;;
11123;SDS011;5616;42.692;23.312;2022-11-04T05:12:58;20.70;;;12.10;;
11123;SDS011;5616;42.692;23.312;2022-11-04T05:15:42;17.27;;;11.77;;
11123;SDS011;5616;42.692;23.312;2022-11-04T05:18:09;20.30;;;11.23;;
11123;SDS011;5616;42.692;23.312;2022-11-04T05:20:36;21.43;;;11.80;;
11123;SDS011;5616;42.692;23.312;2022-11-04T05:23:06;18.07;;;12.10;;
11123;SDS011;5616;42.692;23.312;2022-11-04T05:25:36;19.23;;;12.13;;
11123;SDS011;5616;42.692;23.312;2022-11-04T05:28:03;21.50;;;11.80;;
11123;SDS011;5616;42.692;23.312;2022-11-04T05:30:31;21.20;;;12.13;;
11123;SDS011;5616;42.692;23.312;2022-11-04T05:32:58;18.43;;;12.03;;
11123;SDS011;5616;42.692;23.312;2022-11-04T05:35:25;21.90;;;12.37;;
11123;SDS011;5616;42.692;23.312;2022-11-04T05:37:53;19.67;;;12.13;;
11123;SDS011;5616;42.692;23.312;2022-11-04T05:40:22;25.03;;;13.40;;
11123;SDS011;5616;42.692;23.312;2022-11-04T05:42:49;23.70;;;12.33;;
11123;SDS011;5616;42.692;23.312;2022-11-04T05:45:15;23.43;;;12.43;;
11123;SDS011;5616;42.692;23.312;2022-11-04T05:47:42;19.70;;;12.07;;
11123;SDS011;5616;42.692;23.312;2022-11-04T05:50:09;20.77;;;12.50;;
11123;SDS011;5616;42.692;23.312;2022-11-04T05:52:36;19.43;;;11.83;;
11123;SDS011;5616;42.692;23.312;2022-11-04T05:55:03;26.60;;;13.67;;
11123;SDS011;5616;42.692;23.312;2022-11-04T05:57:32;21.60;;;14.30;;
11123;SDS011;5616;42.692;23.312;2022-11-04T05:59:59;22.47;;;14.50;;
11123;SDS011;5616;42.692;23.312;2022-11-04T06:02:26;20.43;;;14.73;;
11123;SDS011;5616;42.692;23.312;2022-11-04T06:04:53;27.40;;;15.43;;
11123;SDS011;5616;42.692;23.312;2022-11-04T06:07:19;23.27;;;13.90;;
11123;SDS011;5616;42.692;23.312;2022-11-04T06:09:46;23.37;;;14.20;;
11123;SDS011;5616;42.692;23.312;2022-11-04T06:12:14;26.13;;;14.87;;
11123;SDS011;5616;42.692;23.312;2022-11-04T06:14:42;28.73;;;16.33;;
11123;SDS011;5616;42.692;23.312;2022-11-04T06:17:10;24.47;;;14.70;;
11123;SDS011;5616;42.692;23.312;2022-11-04T06:19:40;24.97;;;14.93;;
11123;SDS011;5616;42.692;23.312;2022-11-04T06:22:07;29.07;;;16.17;;
11123;SDS011;5616;42.692;23.312;2022-11-04T06:24:35;29.33;;;18.70;;
11123;SDS011;5616;42.692;23.312;2022-11-04T06:27:01;30.23;;;19.53;;
11123;SDS011;5616;42.692;23.312;2022-11-04T06:29:28;29.70;;;18.57;;
11123;SDS011;5616;42.692;23.312;2022-11-04T06:31:56;30.20;;;18.67;;
11123;SDS011;5616;42.692;23.312;2022-11-04T06:34:23;35.87;;;22.03;;
11123;SDS011;5616;42.692;23.312;2022-11-04T06:36:50;24.20;;;16.90;;
11123;SDS011;5616;42.692;23.312;2022-11-04T06:39:17;33.43;;;18.67;;
11123;SDS011;5616;42.692;23.312;2022-11-04T06:41:44;26.73;;;17.67;;
11123;SDS011;5616;42.692;23.312;2022-11-04T06:44:11;31.37;;;20.23;;
11123;SDS011;5616;42.692;23.312;2022-11-04T06:46:38;31.00;;;19.00;;
11123;SDS011;5616;42.692;23.312;2022-11-04T06:49:08;24.87;;;16.47;;
11123;SDS011;5616;42.692;23.312;2022-11-04T06:51:38;29.13;;;18.40;;
11123;SDS011;5616;42.692;23.312;2022-11-04T06:54:05;30.40;;;19.03;;
11123;SDS011;5616;42.692;23.312;2022-11-04T06:56:31;28.00;;;17.63;;
11123;SDS011;5616;42.692;23.312;2022-11-04T06:58:58;27.43;;;17.43;;
11123;SDS011;5616;42.692;23.312;2022-11-04T07:01:26;30.60;;;19.03;;
11123;SDS011;5616;42.692;23.312;2022-11-04T07:03:54;31.40;;;21.83;;
11123;SDS011;5616;42.692;23.312;2022-11-04T07:06:24;32.17;;;19.70;;
11123;SDS011;5616;42.692;23.312;2022-11-04T07:08:51;32.60;;;18.20;;
11123;SDS011;5616;42.692;23.312;2022-11-04T07:11:19;28.37;;;19.23;;
11123;SDS011;5616;42.692;23.312;2022-11-04T07:13:47;30.50;;;19.00;;
11123;SDS011;5616;42.692;23.312;2022-11-04T07:16:15;46.07;;;24.50;;
11123;SDS011;5616;42.692;23.312;2022-11-04T07:18:42;29.23;;;18.60;;
11123;SDS011;5616;42.692;23.312;2022-11-04T07:21:10;32.97;;;20.23;;
11123;SDS011;5616;42.692;23.312;2022-11-04T07:23:38;27.20;;;18.73;;
11123;SDS011;5616;42.692;23.312;2022-11-04T07:26:06;27.13;;;18.50;;
11123;SDS011;5616;42.692;23.312;2022-11-04T07:28:35;30.43;;;19.10;;
11123;SDS011;5616;42.692;23.312;2022-11-04T07:31:03;31.53;;;20.37;;
11123;SDS011;5616;42.692;23.312;2022-11-04T07:33:31;29.33;;;19.33;;
11123;SDS011;5616;42.692;23.312;2022-11-04T07:36:01;25.53;;;20.17;;
11123;SDS011;5616;42.692;23.312;2022-11-04T07:38:29;31.13;;;19.47;;
11123;SDS011;5616;42.692;23.312;2022-11-04T07:40:57;26.83;;;19.60;;
11123;SDS011;5616;42.692;23.312;2022-11-04T07:43:26;27.43;;;19.20;;
11123;SDS011;5616;42.692;23.312;2022-11-04T07:46:00;32.77;;;20.57;;
11123;SDS011;5616;42.692;23.312;2022-11-04T07:48:27;29.63;;;20.37;;
11123;SDS011;5616;42.692;23.312;2022-11-04T07:50:55;30.60;;;19.13;;
11123;SDS011;5616;42.692;23.312;2022-11-04T07:53:23;26.70;;;18.50;;
11123;SDS011;5616;42.692;23.312;2022-11-04T07:55:51;27.97;;;19.83;;
11123;SDS011;5616;42.692;23.312;2022-11-04T07:58:19;29.17;;;19.17;;
11123;SDS011;5616;42.692;23.312;2022-11-04T08:00:46;35.83;;;22.63;;
11123;SDS011;5616;42.692;23.312;2022-11-04T08:03:14;30.03;;;20.13;;
11123;SDS011;5616;42.692;23.312;2022-11-04T08:05:41;27.30;;;19.13;;
11123;SDS011;5616;42.692;23.312;2022-11-04T08:08:08;33.27;;;21.13;;
11123;SDS011;5616;42.692;23.312;2022-11-04T08:10:35;27.80;;;19.37;;
11123;SDS011;5616;42.692;23.312;2022-11-04T08:13:01;29.50;;;19.90;;
11123;SDS011;5616;42.692;23.312;2022-11-04T08:15:30;26.43;;;18.30;;
11123;SDS011;5616;42.692;23.312;2022-11-04T08:17:57;29.63;;;18.63;;
11123;SDS011;5616;42.692;23.312;2022-11-04T08:20:23;31.47;;;18.87;;
11123;SDS011;5616;42.692;23.312;2022-11-04T08:22:50;23.93;;;18.97;;
11123;SDS011;5616;42.692;23.312;2022-11-04T08:25:17;28.80;;;19.87;;
11123;SDS011;5616;42.692;23.312;2022-11-04T08:27:44;32.37;;;20.30;;
11123;SDS011;5616;42.692;23.312;2022-11-04T08:30:11;28.20;;;19.53;;
11123;SDS011;5616;42.692;23.312;2022-11-04T08:32:39;93.90;;;38.87;;
11123;SDS011;5616;42.692;23.312;2022-11-04T08:35:06;39.03;;;22.17;;
11123;SDS011;5616;42.692;23.312;2022-11-04T08:37:34;27.97;;;18.97;;
11123;SDS011;5616;42.692;23.312;2022-11-04T08:40:01;25.87;;;18.00;;
11123;SDS011;5616;42.692;23.312;2022-11-04T08:42:28;23.80;;;18.77;;
11123;SDS011;5616;42.692;23.312;2022-11-04T08:44:55;28.47;;;19.13;;
11123;SDS011;5616;42.692;23.312;2022-11-04T08:47:22;39.70;;;22.60;;
11123;SDS011;5616;42.692;23.312;2022-11-04T08:49:50;29.83;;;19.07;;
11123;SDS011;5616;42.692;23.312;2022-11-04T08:52:17;39.70;;;22.23;;
11123;SDS011;5616;42.692;23.312;2022-11-04T08:54:43;34.80;;;21.20;;
11123;SDS011;5616;42.692;23.312;2022-11-04T08:57:10;26.77;;;18.43;;
11123;SDS011;5616;42.692;23.312;2022-11-04T08:59:37;26.57;;;18.00;;
11123;SDS011;5616;42.692;23.312;2022-11-04T09:02:04;26.90;;;18.00;;
11123;SDS011;5616;42.692;23.312;2022-11-04T09:04:31;47.47;;;25.20;;
11123;SDS011;5616;42.692;23.312;2022-11-04T09:07:00;34.63;;;22.33;;
11123;SDS011;5616;42.692;23.312;2022-11-04T09:09:28;34.17;;;20.03;;
11123;SDS011;5616;42.692;23.312;2022-11-04T09:11:54;25.80;;;17.30;;
11123;SDS011;5616;42.692;23.312;2022-11-04T09:14:21;25.53;;;16.67;;
11123;SDS011;5616;42.692;23.312;2022-11-04T09:16:48;26.97;;;18.07;;
11123;SDS011;5616;42.692;23.312;2022-11-04T09:19:15;25.53;;;16.60;;
11123;SDS011;5616;42.692;23.312;2022-11-04T09:21:42;24.20;;;15.13;;
11123;SDS011;5616;42.692;23.312;2022-11-04T09:24:10;22.17;;;14.10;;
11123;SDS011;5616;42.692;23.312;2022-11-04T09:26:38;26.40;;;16.63;;
11123;SDS011;5616;42.692;23.312;2022-11-04T09:29:04;23.03;;;14.40;;
11123;SDS011;5616;42.692;23.312;2022-11-04T09:31:33;24.43;;;17.50;;
11123;SDS011;5616;42.692;23.312;2022-11-04T09:34:00;28.50;;;18.23;;
11123;SDS011;5616;42.692;23.312;2022-11-04T09:36:27;24.60;;;16.93;;
11123;SDS011;5616;42.692;23.312;2022-11-04T09:38:54;26.90;;;17.07;;
11123;SDS011;5616;42.692;23.312;2022-11-04T09:41:27;23.90;;;17.70;;
11123;SDS011;5616;42.692;23.312;2022-11-04T09:44:10;29.47;;;17.93;;
11123;SDS011;5616;42.692;23.312;2022-11-04T09:46:45;27.43;;;18.07;;
11123;SDS011;5616;42.692;23.312;2022-11-04T09:49:14;26.70;;;16.87;;
11123;SDS011;5616;42.692;23.312;2022-11-04T09:51:42;22.43;;;16.30;;
11123;SDS011;5616;42.692;23.312;2022-11-04T09:54:15;32.77;;;16.93;;
11123;SDS011;5616;42.692;23.312;2022-11-04T09:56:46;24.10;;;16.47;;
11123;SDS011;5616;42.692;23.312;2022-11-04T09:59:18;24.80;;;16.70;;
11123;SDS011;5616;42.692;23.312;2022-11-04T10:01:48;25.37;;;15.07;;
11123;SDS011;5616;42.692;23.312;2022-11-04T10:04:23;24.50;;;16.33;;
11123;SDS011;5616;42.692;23.312;2022-11-04T10:07:03;25.27;;;15.93;;
11123;SDS011;5616;42.692;23.312;2022-11-04T10:09:41;29.73;;;15.27;;
11123;SDS011;5616;42.692;23.312;2022-11-04T10:12:24;25.07;;;16.03;;
11123;SDS011;5616;42.692;23.312;2022-11-04T10:15:23;29.10;;;16.40;;
11123;SDS011;5616;42.692;23.312;2022-11-04T10:18:08;25.87;;;15.37;;
11123;SDS011;5616;42.692;23.312;2022-11-04T10:20:49;21.50;;;15.83;;
11123;SDS011;5616;42.692;23.312;2022-11-04T10:23:25;25.13;;;16.23;;
11123;SDS011;5616;42.692;23.312;2022-11-04T10:26:00;24.70;;;15.90;;
11123;SDS011;5616;42.692;23.312;2022-11-04T10:28:39;28.03;;;15.97;;
11123;SDS011;5616;42.692;23.312;2022-11-04T10:31:10;22.53;;;15.63;;
11123;SDS011;5616;42.692;23.312;2022-11-04T10:33:40;22.10;;;14.83;;
11123;SDS011;5616;42.692;23.312;2022-11-04T10:36:09;19.20;;;13.17;;
11123;SDS011;5616;42.692;23.312;2022-11-04T10:38:38;22.97;;;14.17;;
11123;SDS011;5616;42.692;23.312;2022-11-04T10:41:19;21.83;;;13.73;;
11123;SDS011;5616;42.692;23.312;2022-11-04T10:43:54;22.37;;;14.60;;
11123;SDS011;5616;42.692;23.312;2022-11-04T10:46:28;27.37;;;13.37;;
11123;SDS011;5616;42.692;23.312;2022-11-04T10:49:04;21.50;;;12.57;;
11123;SDS011;5616;42.692;23.312;2022-11-04T10:51:45;21.80;;;13.70;;
11123;SDS011;5616;42.692;23.312;2022-11-04T10:54:12;26.23;;;14.77;;
11123;SDS011;5616;42.692;23.312;2022-11-04T10:56:41;17.03;;;12.20;;
11123;SDS011;5616;42.692;23.312;2022-11-04T10:59:17;22.13;;;13.70;;
11123;SDS011;5616;42.692;23.312;2022-11-04T11:01:50;19.03;;;11.83;;
11123;SDS011;5616;42.692;23.312;2022-11-04T11:04:27;20.83;;;12.73;;
11123;SDS011;5616;42.692;23.312;2022-11-04T11:06:55;18.90;;;11.80;;
11123;SDS011;5616;42.692;23.312;2022-11-04T11:09:24;24.10;;;12.80;;
11123;SDS011;5616;42.692;23.312;2022-11-04T11:11:54;18.87;;;12.07;;
11123;SDS011;5616;42.692;23.312;2022-11-04T11:14:33;22.30;;;12.63;;
11123;SDS011;5616;42.692;23.312;2022-11-04T11:17:21;22.10;;;12.37;;
11123;SDS011;5616;42.692;23.312;2022-11-04T11:19:53;30.67;;;16.40;;
11123;SDS011;5616;42.692;23.312;2022-11-04T11:22:29;26.17;;;14.77;;
11123;SDS011;5616;42.692;23.312;2022-11-04T11:27:47;21.03;;;11.30;;
11123;SDS011;5616;42.692;23.312;2022-11-04T11:30:20;22.73;;;13.33;;
11123;SDS011;5616;42.692;23.312;2022-11-04T11:32:50;21.60;;;12.10;;
11123;SDS011;5616;42.692;23.312;2022-11-04T11:35:24;24.83;;;15.17;;
11123;SDS011;5616;42.692;23.312;2022-11-04T11:37:54;42.23;;;22.50;;
11123;SDS011;5616;42.692;23.312;2022-11-04T11:40:24;27.27;;;14.83;;
11123;SDS011;5616;42.692;23.312;2022-11-04T11:42:53;35.93;;;18.23;;
11123;SDS011;5616;42.692;23.312;2022-11-04T11:45:23;21.17;;;11.93;;
11123;SDS011;5616;42.692;23.312;2022-11-04T11:47:50;18.10;;;11.50;;
11123;SDS011;5616;42.692;23.312;2022-11-04T11:50:20;35.73;;;19.17;;
11123;SDS011;5616;42.692;23.312;2022-11-04T11:52:54;20.17;;;11.60;;
11123;SDS011;5616;42.692;23.312;2022-11-04T11:55:38;31.67;;;18.57;;
11123;SDS011;5616;42.692;23.312;2022-11-04T11:58:10;27.60;;;16.43;;
11123;SDS011;5616;42.692;23.312;2022-11-04T12:00:44;20.87;;;11.00;;
11123;SDS011;5616;42.692;23.312;2022-11-04T12:03:16;18.97;;;11.23;;
11123;SDS011;5616;42.692;23.312;2022-11-04T12:05:46;16.33;;;10.97;;
11123;SDS011;5616;42.692;23.312;2022-11-04T12:08:29;19.77;;;10.00;;
11123;SDS011;5616;42.692;23.312;2022-11-04T12:11:14;17.60;;;10.50;;
11123;SDS011;5616;42.692;23.312;2022-11-04T12:13:47;18.33;;;10.40;;
11123;SDS011;5616;42.692;23.312;2022-11-04T12:16:23;19.63;;;11.00;;
11123;SDS011;5616;42.692;23.312;2022-11-04T12:19:02;14.67;;;9.97;;
11123;SDS011;5616;42.692;23.312;2022-11-04T12:21:43;17.00;;;10.10;;
11123;SDS011;5616;42.692;23.312;2022-11-04T12:24:18;16.93;;;10.00;;
11123;SDS011;5616;42.692;23.312;2022-11-04T12:26:55;17.67;;;10.20;;
11123;SDS011;5616;42.692;23.312;2022-11-04T12:29:38;15.27;;;10.33;;
11123;SDS011;5616;42.692;23.312;2022-11-04T12:32:21;15.10;;;9.90;;
11123;SDS011;5616;42.692;23.312;2022-11-04T12:34:59;14.07;;;8.83;;
11123;SDS011;5616;42.692;23.312;2022-11-04T12:37:40;18.23;;;10.30;;
11123;SDS011;5616;42.692;23.312;2022-11-04T12:40:19;16.10;;;10.07;;
11123;SDS011;5616;42.692;23.312;2022-11-04T12:42:54;15.67;;;9.77;;
11123;SDS011;5616;42.692;23.312;2022-11-04T12:45:35;14.77;;;9.93;;
11123;SDS011;5616;42.692;23.312;2022-11-04T12:48:18;13.97;;;9.70;;
11123;SDS011;5616;42.692;23.312;2022-11-04T12:51:00;17.07;;;10.47;;
11123;SDS011;5616;42.692;23.312;2022-11-04T12:53:35;25.33;;;13.57;;
11123;SDS011;5616;42.692;23.312;2022-11-04T12:56:13;17.87;;;10.93;;
11123;SDS011;5616;42.692;23.312;2022-11-04T12:58:44;44.47;;;21.47;;
11123;SDS011;5616;42.692;23.312;2022-11-04T13:01:27;21.97;;;13.17;;
11123;SDS011;5616;42.692;23.312;2022-11-04T13:04:02;19.30;;;10.60;;
11123;SDS011;5616;42.692;23.312;2022-11-04T13:06:36;18.57;;;11.30;;
11123;SDS011;5616;42.692;23.312;2022-11-04T13:09:08;20.80;;;12.63;;
11123;SDS011;5616;42.692;23.312;2022-11-04T13:11:42;23.80;;;12.63;;
11123;SDS011;5616;42.692;23.312;2022-11-04T13:14:16;30.33;;;15.13;;
11123;SDS011;5616;42.692;23.312;2022-11-04T13:16:53;23.53;;;12.83;;
11123;SDS011;5616;42.692;23.312;2022-11-04T13:19:26;20.20;;;12.53;;
11123;SDS011;5616;42.692;23.312;2022-11-04T13:21:57;26.60;;;14.77;;
11123;SDS011;5616;42.692;23.312;2022-11-04T13:24:29;29.57;;;16.07;;
11123;SDS011;5616;42.692;23.312;2022-11-04T13:26:57;30.57;;;15.33;;
11123;SDS011;5616;42.692;23.312;2022-11-04T13:29:27;21.37;;;12.50;;
11123;SDS011;5616;42.692;23.312;2022-11-04T13:31:57;20.57;;;11.33;;
11123;SDS011;5616;42.692;23.312;2022-11-04T13:34:35;24.33;;;13.53;;
11123;SDS011;5616;42.692;23.312;2022-11-04T13:37:10;23.57;;;13.13;;
11123;SDS011;5616;42.692;23.312;2022-11-04T13:39:47;24.63;;;14.23;;
11123;SDS011;5616;42.692;23.312;2022-11-04T13:42:28;19.53;;;12.47;;
11123;SDS011;5616;42.692;23.312;2022-11-04T13:45:04;21.10;;;11.80;;
11123;SDS011;5616;42.692;23.312;2022-11-04T13:47:41;21.80;;;11.57;;
11123;SDS011;5616;42.692;23.312;2022-11-04T13:50:27;31.20;;;15.60;;
11123;SDS011;5616;42.692;23.312;2022-11-04T13:52:59;20.57;;;12.13;;
11123;SDS011;5616;42.692;23.312;2022-11-04T13:55:27;34.03;;;17.33;;
11123;SDS011;5616;42.692;23.312;2022-11-04T13:57:54;22.23;;;12.03;;
11123;SDS011;5616;42.692;23.312;2022-11-04T14:00:24;33.87;;;18.07;;
11123;SDS011;5616;42.692;23.312;2022-11-04T14:02:52;29.50;;;15.70;;
11123;SDS011;5616;42.692;23.312;2022-11-04T14:08:24;41.67;;;15.73;;
11123;SDS011;5616;42.692;23.312;2022-11-04T14:10:59;26.70;;;14.33;;
11123;SDS011;5616;42.692;23.312;2022-11-04T14:13:41;33.33;;;14.97;;
11123;SDS011;5616;42.692;23.312;2022-11-04T14:16:09;21.73;;;13.00;;
11123;SDS011;5616;42.692;23.312;2022-11-04T14:18:38;21.47;;;11.73;;
11123;SDS011;5616;42.692;23.312;2022-11-04T14:21:07;31.03;;;14.87;;
11123;SDS011;5616;42.692;23.312;2022-11-04T14:23:37;46.47;;;20.40;;
11123;SDS011;5616;42.692;23.312;2022-11-04T14:26:06;36.63;;;17.67;;
11123;SDS011;5616;42.692;23.312;2022-11-04T14:28:35;71.63;;;28.43;;
11123;SDS011;5616;42.692;23.312;2022-11-04T14:31:03;58.47;;;25.13;;
11123;SDS011;5616;42.692;23.312;2022-11-04T14:33:34;37.40;;;19.03;;
11123;SDS011;5616;42.692;23.312;2022-11-04T14:36:22;35.30;;;18.40;;
11123;SDS011;5616;42.692;23.312;2022-11-04T14:39:20;89.53;;;35.97;;
11123;SDS011;5616;42.692;23.312;2022-11-04T14:41:56;54.37;;;22.57;;
11123;SDS011;5616;42.692;23.312;2022-11-04T14:44:27;37.07;;;19.97;;
11123;SDS011;5616;42.692;23.312;2022-11-04T14:46:57;27.10;;;16.83;;
11123;SDS011;5616;42.692;23.312;2022-11-04T14:49:31;24.30;;;12.60;;
11123;SDS011;5616;42.692;23.312;2022-11-04T14:52:04;18.80;;;12.10;;
11123;SDS011;5616;42.692;23.312;2022-11-04T14:54:39;20.67;;;11.20;;